createdAt,value
2022-09-25T00:01:00.380Z,100.00
2022-09-25T00:03:28.583Z,100.00
2022-09-25T00:06:05.515Z,100.00
2022-09-25T00:08:33.264Z,100.00
2022-09-25T00:10:59.879Z,100.00
2022-09-25T00:13:26.794Z,100.00
2022-09-25T00:15:56.078Z,100.00
2022-09-25T00:18:43.243Z,100.00
2022-09-25T00:21:14.618Z,100.00
2022-09-25T00:23:44.767Z,100.00
2022-09-25T00:26:13.369Z,100.00
2022-09-25T00:28:41.118Z,100.00
2022-09-25T00:31:09.450Z,100.00
2022-09-25T00:33:37.055Z,100.00
2022-09-25T00:36:09.266Z,100.00
2022-09-25T00:38:37.120Z,100.00
2022-09-25T00:41:06.149Z,100.00
2022-09-25T00:43:40.067Z,100.00
2022-09-25T00:46:25.403Z,100.00
2022-09-25T00:48:58.539Z,100.00
2022-09-25T00:51:30.413Z,100.00
2022-09-25T00:54:01.331Z,100.00
2022-09-25T00:56:34.609Z,100.00
2022-09-25T00:59:01.244Z,100.00
2022-09-25T01:01:27.990Z,100.00
2022-09-25T01:03:56.111Z,100.00
2022-09-25T01:06:26.212Z,100.00
2022-09-25T01:08:53.116Z,100.00
2022-09-25T01:11:19.766Z,100.00
2022-09-25T01:13:46.485Z,100.00
2022-09-25T01:16:27.306Z,100.00
2022-09-25T01:18:53.870Z,100.00
2022-09-25T01:21:38.650Z,100.00
2022-09-25T01:24:19.133Z,100.00
2022-09-25T01:27:20.109Z,100.00
2022-09-25T01:30:11.572Z,100.00
2022-09-25T01:32:57.695Z,100.00
2022-09-25T01:35:33.407Z,100.00
2022-09-25T01:38:31.573Z,100.00
2022-09-25T01:41:09.951Z,100.00
2022-09-25T01:43:57.672Z,100.00
2022-09-25T01:46:29.134Z,100.00
2022-09-25T01:49:01.940Z,100.00
2022-09-25T01:51:51.822Z,100.00
2022-09-25T01:54:24.940Z,100.00
2022-09-25T01:56:57.556Z,100.00
2022-09-25T01:59:36.110Z,100.00
2022-09-25T02:02:06.898Z,100.00
2022-09-25T02:04:41.898Z,100.00
2022-09-25T02:07:12.949Z,100.00
2022-09-25T02:09:45.936Z,100.00
2022-09-25T02:12:31.273Z,100.00
2022-09-25T02:15:03.619Z,100.00
2022-09-25T02:17:53.465Z,100.00
2022-09-25T02:20:33.323Z,100.00
2022-09-25T02:23:11.452Z,100.00
2022-09-25T02:25:45.190Z,100.00
2022-09-25T02:28:12.089Z,100.00
2022-09-25T02:30:38.786Z,100.00
2022-09-25T02:33:05.410Z,100.00
2022-09-25T02:35:33.090Z,100.00
2022-09-25T02:38:00.449Z,100.00
2022-09-25T02:40:41.842Z,100.00
2022-09-25T02:43:31.472Z,100.00
2022-09-25T02:46:35.710Z,100.00
2022-09-25T02:49:40.299Z,100.00
2022-09-25T02:52:11.412Z,100.00
2022-09-25T02:54:45.758Z,100.00
2022-09-25T02:57:32.371Z,100.00
2022-09-25T03:00:04.614Z,100.00
2022-09-25T03:02:32.893Z,100.00
2022-09-25T03:05:01.212Z,100.00
2022-09-25T03:07:27.995Z,100.00
2022-09-25T03:09:57.887Z,100.00
2022-09-25T03:12:24.522Z,100.00
2022-09-25T03:14:51.115Z,100.00
2022-09-25T03:17:17.696Z,100.00
2022-09-25T03:19:44.297Z,100.00
2022-09-25T03:22:12.106Z,100.00
2022-09-25T03:24:38.813Z,100.00
2022-09-25T03:27:05.400Z,100.00
2022-09-25T03:29:32.249Z,100.00
2022-09-25T03:31:58.899Z,100.00
2022-09-25T03:34:25.599Z,100.00
2022-09-25T03:36:52.212Z,100.00
2022-09-25T03:39:18.873Z,100.00
2022-09-25T03:41:45.634Z,100.00
2022-09-25T03:44:12.450Z,100.00
2022-09-25T03:46:39.335Z,100.00
2022-09-25T03:49:06.109Z,100.00
2022-09-25T03:51:33.673Z,100.00
2022-09-25T03:54:00.273Z,100.00
2022-09-25T03:56:29.026Z,100.00
2022-09-25T03:58:56.230Z,100.00
2022-09-25T04:01:24.956Z,100.00
2022-09-25T04:03:52.040Z,100.00
2022-09-25T04:06:22.657Z,100.00
2022-09-25T04:08:50.091Z,100.00
2022-09-25T04:11:18.236Z,100.00
2022-09-25T04:13:45.564Z,100.00
2022-09-25T04:16:13.633Z,100.00
2022-09-25T04:18:42.954Z,100.00
2022-09-25T04:21:11.972Z,100.00
2022-09-25T04:23:39.217Z,100.00
2022-09-25T04:26:07.537Z,100.00
2022-09-25T04:28:35.651Z,100.00
2022-09-25T04:31:03.868Z,100.00
2022-09-25T04:33:48.820Z,100.00
2022-09-25T04:36:18.164Z,100.00
2022-09-25T04:38:45.026Z,100.00
2022-09-25T04:41:11.849Z,100.00
2022-09-25T04:43:40.949Z,100.00
2022-09-25T04:46:08.921Z,100.00
2022-09-25T04:48:36.030Z,100.00
2022-09-25T04:51:03.823Z,100.00
2022-09-25T04:53:31.674Z,100.00
2022-09-25T04:56:03.190Z,100.00
2022-09-25T04:58:29.975Z,100.00
2022-09-25T05:01:00.976Z,100.00
2022-09-25T05:03:27.871Z,100.00
2022-09-25T05:05:54.478Z,100.00
2022-09-25T05:08:21.066Z,100.00
2022-09-25T05:10:47.686Z,100.00
2022-09-25T05:13:14.568Z,100.00
2022-09-25T05:15:41.146Z,100.00
2022-09-25T05:18:15.829Z,100.00
2022-09-25T05:20:42.719Z,100.00
2022-09-25T05:23:09.304Z,95.65
2022-09-25T05:25:36.018Z,88.49
2022-09-25T05:28:03.171Z,79.88
2022-09-25T05:30:31.996Z,74.81
2022-09-25T05:32:59.236Z,70.28
2022-09-25T05:35:29.819Z,68.48
2022-09-25T05:37:56.470Z,69.03
2022-09-25T05:40:24.221Z,70.14
2022-09-25T05:42:52.129Z,71.08
2022-09-25T05:45:20.884Z,73.77
2022-09-25T05:47:47.485Z,73.41
2022-09-25T05:50:17.952Z,74.91
2022-09-25T05:52:44.573Z,75.67
2022-09-25T05:55:11.226Z,73.20
2022-09-25T05:57:38.344Z,73.58
2022-09-25T06:00:08.861Z,75.21
2022-09-25T06:02:35.831Z,73.28
2022-09-25T06:05:02.473Z,76.33
2022-09-25T06:07:29.095Z,75.66
2022-09-25T06:09:55.690Z,74.67
2022-09-25T06:12:24.916Z,72.51
2022-09-25T06:14:52.576Z,72.70
2022-09-25T06:17:20.058Z,70.61
2022-09-25T06:19:46.964Z,68.31
2022-09-25T06:22:13.905Z,65.94
2022-09-25T06:24:40.794Z,62.75
2022-09-25T06:27:08.239Z,60.98
2022-09-25T06:29:35.329Z,61.09
2022-09-25T06:32:03.190Z,61.85
2022-09-25T06:34:29.877Z,63.28
2022-09-25T06:36:56.521Z,62.87
2022-09-25T06:39:23.074Z,64.89
2022-09-25T06:41:53.553Z,66.42
2022-09-25T06:44:21.132Z,65.88
2022-09-25T06:46:54.580Z,62.97
2022-09-25T06:49:22.006Z,61.65
2022-09-25T06:51:51.070Z,60.49
2022-09-25T06:54:18.238Z,59.90
2022-09-25T06:56:49.468Z,59.11
2022-09-25T06:59:16.446Z,56.57
2022-09-25T07:01:43.226Z,54.48
2022-09-25T07:04:10.181Z,52.07
2022-09-25T07:06:37.419Z,51.58
2022-09-25T07:09:04.337Z,51.23
2022-09-25T07:11:34.211Z,51.35
2022-09-25T07:14:01.071Z,49.72
2022-09-25T07:16:30.258Z,48.60
2022-09-25T07:19:02.837Z,47.90
2022-09-25T07:21:32.220Z,46.86
2022-09-25T07:23:59.158Z,45.87
2022-09-25T07:26:28.491Z,45.04
2022-09-25T07:29:04.229Z,44.62
2022-09-25T07:31:33.257Z,45.54
2022-09-25T07:34:03.048Z,43.79
2022-09-25T07:36:29.891Z,43.43
2022-09-25T07:38:56.538Z,43.34
2022-09-25T07:41:23.872Z,44.33
2022-09-25T07:44:17.577Z,45.68
2022-09-25T07:46:43.643Z,46.57
2022-09-25T07:49:10.456Z,47.13
2022-09-25T07:51:37.223Z,47.22
2022-09-25T07:54:04.123Z,47.56
2022-09-25T07:56:30.804Z,48.31
2022-09-25T07:58:57.515Z,49.48
2022-09-25T08:01:24.433Z,48.53
2022-09-25T08:03:51.331Z,48.46
2022-09-25T08:06:18.174Z,48.01
2022-09-25T08:08:44.992Z,48.27
2022-09-25T08:11:14.571Z,47.86
2022-09-25T08:13:42.699Z,47.55
2022-09-25T08:16:12.362Z,48.08
2022-09-25T08:18:41.951Z,47.35
2022-09-25T08:21:10.391Z,46.89
2022-09-25T08:23:37.194Z,45.58
2022-09-25T08:26:03.947Z,44.79
2022-09-25T08:28:30.725Z,45.62
2022-09-25T08:31:03.368Z,46.07
2022-09-25T08:33:31.276Z,45.90
2022-09-25T08:36:07.743Z,45.97
2022-09-25T08:38:34.611Z,46.15
2022-09-25T08:41:16.882Z,46.15
2022-09-25T08:43:48.845Z,45.68
2022-09-25T08:46:41.355Z,45.81
2022-09-25T08:49:11.527Z,44.79
2022-09-25T08:51:50.026Z,44.68
2022-09-25T08:54:22.931Z,43.63
2022-09-25T08:56:53.586Z,42.62
2022-09-25T08:59:32.978Z,42.37
2022-09-25T09:02:11.431Z,42.00
2022-09-25T09:04:45.396Z,41.12
2022-09-25T09:07:27.685Z,40.66
2022-09-25T09:10:21.766Z,40.37
2022-09-25T09:12:54.278Z,40.99
2022-09-25T09:15:39.707Z,40.74
2022-09-25T09:18:21.929Z,41.25
2022-09-25T09:20:53.749Z,40.56
2022-09-25T09:23:32.886Z,40.11
2022-09-25T09:26:02.334Z,39.96
2022-09-25T09:28:59.598Z,38.76
2022-09-25T09:32:04.530Z,38.66
2022-09-25T09:35:06.841Z,39.04
2022-09-25T09:37:51.647Z,39.34
2022-09-25T09:40:39.796Z,39.15
2022-09-25T09:43:34.914Z,38.69
2022-09-25T09:46:23.069Z,37.59
2022-09-25T09:49:04.976Z,37.83
2022-09-25T09:51:47.349Z,37.01
2022-09-25T09:54:25.245Z,37.02
2022-09-25T09:56:55.521Z,37.26
2022-09-25T09:59:40.112Z,36.92
2022-09-25T10:02:29.782Z,36.95
2022-09-25T10:05:04.010Z,36.92
2022-09-25T10:07:34.227Z,35.81
2022-09-25T10:10:02.055Z,35.48
2022-09-25T10:12:33.443Z,34.70
2022-09-25T10:15:07.530Z,34.17
2022-09-25T10:17:38.153Z,35.23
2022-09-25T10:20:17.559Z,35.73
2022-09-25T10:22:46.882Z,34.57
2022-09-25T10:25:14.092Z,33.59
2022-09-25T10:27:49.202Z,33.65
2022-09-25T10:30:22.077Z,33.48
2022-09-25T10:33:11.832Z,34.14
2022-09-25T10:35:38.545Z,33.70
2022-09-25T10:38:16.869Z,33.29
2022-09-25T10:40:47.854Z,34.63
2022-09-25T10:43:14.941Z,34.51
2022-09-25T10:45:41.926Z,34.04
2022-09-25T10:48:55.559Z,34.20
2022-09-25T10:51:23.805Z,34.58
2022-09-25T10:54:11.232Z,34.00
2022-09-25T10:56:39.282Z,34.04
2022-09-25T10:59:23.475Z,34.28
2022-09-25T11:01:53.895Z,34.00
2022-09-25T11:04:29.820Z,33.17
2022-09-25T11:07:08.259Z,32.88
2022-09-25T11:09:36.940Z,31.94
2022-09-25T11:12:13.966Z,31.54
2022-09-25T11:14:55.478Z,32.07
2022-09-25T11:17:43.101Z,33.53
2022-09-25T11:20:16.776Z,32.25
2022-09-25T11:22:55.511Z,32.18
2022-09-25T11:25:33.641Z,32.80
2022-09-25T11:28:35.892Z,31.75
2022-09-25T11:31:16.150Z,30.67
2022-09-25T11:33:53.089Z,31.03
2022-09-25T11:36:26.309Z,30.79
2022-09-25T11:39:19.472Z,30.42
2022-09-25T11:41:52.003Z,30.34
2022-09-25T11:44:35.081Z,29.56
2022-09-25T11:47:12.550Z,29.53
2022-09-25T11:49:41.536Z,28.93
2022-09-25T11:52:28.168Z,29.54
2022-09-25T11:55:04.478Z,29.68
2022-09-25T11:58:04.766Z,30.02
2022-09-25T12:00:55.125Z,29.26
2022-09-25T12:03:43.743Z,29.62
2022-09-25T12:06:49.195Z,30.28
2022-09-25T12:09:28.807Z,30.17
2022-09-25T12:12:04.445Z,30.42
2022-09-25T12:14:40.200Z,30.68
2022-09-25T12:17:15.245Z,29.35
2022-09-25T12:19:52.346Z,30.43
2022-09-25T12:22:57.725Z,30.32
2022-09-25T12:25:36.038Z,30.65
2022-09-25T12:28:16.639Z,30.47
2022-09-25T12:31:06.415Z,29.98
2022-09-25T12:33:45.474Z,30.14
2022-09-25T12:36:21.371Z,30.19
2022-09-25T12:38:53.268Z,30.66
2022-09-25T12:41:42.503Z,30.28
2022-09-25T12:44:27.455Z,30.57
2022-09-25T12:47:02.184Z,30.52
2022-09-25T12:49:44.861Z,30.29
2022-09-25T12:52:25.121Z,30.18
2022-09-25T12:55:19.417Z,30.16
2022-09-25T12:57:49.445Z,30.30
2022-09-25T13:00:21.587Z,30.17
2022-09-25T13:03:15.120Z,27.59
2022-09-25T13:05:47.833Z,26.40
2022-09-25T13:08:27.806Z,27.49
2022-09-25T13:11:15.056Z,29.13
2022-09-25T13:14:00.107Z,30.90
2022-09-25T13:19:15.081Z,31.41
2022-09-25T13:21:43.351Z,31.98
2022-09-25T13:24:50.466Z,31.41
2022-09-25T13:30:32.291Z,30.69
2022-09-25T13:33:15.422Z,31.25
2022-09-25T13:35:43.064Z,30.46
2022-09-25T13:38:38.533Z,30.78
2022-09-25T13:41:27.519Z,30.20
2022-09-25T13:44:42.796Z,30.14
2022-09-25T13:47:25.442Z,30.34
2022-09-25T13:50:11.235Z,30.85
2022-09-25T13:52:41.805Z,31.27
2022-09-25T13:55:22.266Z,31.93
2022-09-25T13:57:59.127Z,32.59
2022-09-25T14:00:37.514Z,31.61
2022-09-25T14:03:12.269Z,31.91
2022-09-25T14:05:48.380Z,31.83
2022-09-25T14:08:18.194Z,31.82
2022-09-25T14:10:50.112Z,31.84
2022-09-25T14:13:24.182Z,32.11
2022-09-25T14:15:55.554Z,31.82
2022-09-25T14:18:55.217Z,30.29
2022-09-25T14:21:24.001Z,30.95
2022-09-25T14:23:59.159Z,31.43
2022-09-25T14:26:29.548Z,32.15
2022-09-25T14:29:04.404Z,32.50
2022-09-25T14:31:57.229Z,32.87
2022-09-25T14:34:39.268Z,32.10
2022-09-25T14:37:54.126Z,31.94
2022-09-25T14:40:49.891Z,31.86
2022-09-25T14:43:43.883Z,31.67
2022-09-25T14:46:30.383Z,31.71
2022-09-25T14:49:27.709Z,31.40
2022-09-25T14:52:20.416Z,31.87
2022-09-25T14:54:55.588Z,31.54
2022-09-25T14:57:31.880Z,31.87
2022-09-25T15:00:12.128Z,31.69
2022-09-25T15:02:45.617Z,31.64
2022-09-25T15:05:27.717Z,32.32
2022-09-25T15:07:59.154Z,32.20
2022-09-25T15:10:29.024Z,32.07
2022-09-25T15:13:20.149Z,32.39
2022-09-25T15:16:10.506Z,32.83
2022-09-25T15:18:39.897Z,32.98
2022-09-25T15:21:26.075Z,32.87
2022-09-25T15:23:55.004Z,32.73
2022-09-25T15:26:22.735Z,32.94
2022-09-25T15:28:50.027Z,32.64
2022-09-25T15:31:16.853Z,33.17
2022-09-25T15:33:44.434Z,33.16
2022-09-25T15:36:20.405Z,31.85
2022-09-25T15:38:53.991Z,31.89
2022-09-25T15:41:21.975Z,31.50
2022-09-25T15:43:50.215Z,30.66
2022-09-25T15:46:34.753Z,30.82
2022-09-25T15:49:02.743Z,30.65
2022-09-25T15:51:33.754Z,30.72
2022-09-25T15:54:04.512Z,31.30
2022-09-25T15:56:53.501Z,31.15
2022-09-25T15:59:25.485Z,31.22
2022-09-25T16:02:11.369Z,31.42
2022-09-25T16:04:49.443Z,31.64
2022-09-25T16:07:25.236Z,31.83
2022-09-25T16:09:55.690Z,32.18
2022-09-25T16:12:27.718Z,32.51
2022-09-25T16:14:58.722Z,32.81
2022-09-25T16:17:33.077Z,33.13
2022-09-25T16:20:26.595Z,33.40
2022-09-25T16:22:59.770Z,33.64
2022-09-25T16:25:31.110Z,34.60
2022-09-25T16:28:21.517Z,35.22
2022-09-25T16:31:01.949Z,35.33
2022-09-25T16:33:33.330Z,35.78
2022-09-25T16:36:15.878Z,35.67
2022-09-25T16:39:04.185Z,36.38
2022-09-25T16:41:31.297Z,36.73
2022-09-25T16:44:18.385Z,37.00
2022-09-25T16:47:00.478Z,37.46
2022-09-25T16:49:27.132Z,37.66
2022-09-25T16:51:55.773Z,38.01
2022-09-25T16:54:31.073Z,37.51
2022-09-25T16:56:59.465Z,37.41
2022-09-25T16:59:28.569Z,37.70
2022-09-25T17:02:11.117Z,37.84
2022-09-25T17:04:39.054Z,37.71
2022-09-25T17:07:14.534Z,37.88
2022-09-25T17:09:41.382Z,37.86
2022-09-25T17:12:20.859Z,37.17
2022-09-25T17:14:49.356Z,37.17
2022-09-25T17:17:24.052Z,37.04
2022-09-25T17:19:50.879Z,36.79
2022-09-25T17:22:18.139Z,36.87
2022-09-25T17:24:45.039Z,37.47
2022-09-25T17:27:18.231Z,38.30
2022-09-25T17:29:46.875Z,39.51
2022-09-25T17:32:15.592Z,40.70
2022-09-25T17:34:45.757Z,41.28
2022-09-25T17:37:13.074Z,41.92
2022-09-25T17:39:39.947Z,42.33
2022-09-25T17:42:06.845Z,42.62
2022-09-25T17:44:36.800Z,43.27
2022-09-25T17:47:04.543Z,43.60
2022-09-25T17:49:34.000Z,43.95
2022-09-25T17:52:00.904Z,44.67
2022-09-25T17:54:33.171Z,45.11
2022-09-25T17:57:00.062Z,46.14
2022-09-25T17:59:26.932Z,46.12
2022-09-25T18:01:53.930Z,46.76
2022-09-25T18:04:24.227Z,47.41
2022-09-25T18:06:52.097Z,47.62
2022-09-25T18:09:19.254Z,48.04
2022-09-25T18:11:46.269Z,49.00
2022-09-25T18:14:15.017Z,49.29
2022-09-25T18:16:45.611Z,50.35
2022-09-25T18:19:38.468Z,51.18
2022-09-25T18:22:19.290Z,51.71
2022-09-25T18:24:59.550Z,51.91
2022-09-25T18:27:29.792Z,52.68
2022-09-25T18:29:56.592Z,52.74
2022-09-25T18:32:24.383Z,53.14
2022-09-25T18:34:51.677Z,53.17
2022-09-25T18:37:18.486Z,53.33
2022-09-25T18:39:48.198Z,53.70
2022-09-25T18:42:15.143Z,53.28
2022-09-25T18:44:43.171Z,53.77
2022-09-25T18:47:14.355Z,53.95
2022-09-25T18:49:44.015Z,53.06
2022-09-25T18:52:11.894Z,53.94
2022-09-25T18:54:47.993Z,49.56
2022-09-25T18:57:18.750Z,50.05
2022-09-25T18:59:48.464Z,51.99
2022-09-25T19:02:41.320Z,54.50
2022-09-25T19:05:09.189Z,58.63
2022-09-25T19:07:40.401Z,59.63
2022-09-25T19:10:09.850Z,59.62
2022-09-25T19:12:36.828Z,58.64
2022-09-25T19:15:05.045Z,57.50
2022-09-25T19:17:34.210Z,57.25
2022-09-25T19:20:01.295Z,56.97
2022-09-25T19:22:30.967Z,56.65
2022-09-25T19:24:57.914Z,55.89
2022-09-25T19:27:27.562Z,54.45
2022-09-25T19:29:55.153Z,55.29
2022-09-25T19:32:32.453Z,54.77
2022-09-25T19:34:59.956Z,53.61
2022-09-25T19:37:30.074Z,54.38
2022-09-25T19:40:15.672Z,53.69
2022-09-25T19:42:42.630Z,53.03
2022-09-25T19:45:10.474Z,53.55
2022-09-25T19:47:37.306Z,53.87
2022-09-25T19:50:08.880Z,55.22
2022-09-25T19:52:36.697Z,55.41
2022-09-25T19:55:03.784Z,54.82
2022-09-25T19:57:30.683Z,54.58
2022-09-25T19:59:57.716Z,56.50
2022-09-25T20:02:24.679Z,59.47
2022-09-25T20:04:51.565Z,59.31
2022-09-25T20:07:18.403Z,60.41
2022-09-25T20:09:45.300Z,64.38
2022-09-25T20:12:12.211Z,65.29
2022-09-25T20:14:40.303Z,64.96
2022-09-25T20:17:11.465Z,64.78
2022-09-25T20:19:38.334Z,65.01
2022-09-25T20:22:05.127Z,65.70
2022-09-25T20:24:31.952Z,65.89
2022-09-25T20:26:58.711Z,65.13
2022-09-25T20:29:25.778Z,66.61
2022-09-25T20:31:52.618Z,68.50
2022-09-25T20:34:21.155Z,67.19
2022-09-25T20:36:48.093Z,71.22
2022-09-25T20:39:20.617Z,72.08
2022-09-25T20:41:48.825Z,70.40
2022-09-25T20:44:15.722Z,71.10
2022-09-25T20:46:43.392Z,72.95
2022-09-25T20:49:13.087Z,74.44
2022-09-25T20:51:41.361Z,74.27
2022-09-25T20:54:09.848Z,75.69
2022-09-25T20:56:38.533Z,77.33
2022-09-25T20:59:05.626Z,75.49
2022-09-25T21:01:34.951Z,75.50
2022-09-25T21:04:03.318Z,77.17
2022-09-25T21:06:32.330Z,77.49
2022-09-25T21:09:01.338Z,78.40
2022-09-25T21:11:30.609Z,77.98
2022-09-25T21:13:59.425Z,79.42
2022-09-25T21:16:28.743Z,75.75
2022-09-25T21:18:57.981Z,77.00
2022-09-25T21:21:26.320Z,79.38
2022-09-25T21:23:54.769Z,81.68
2022-09-25T21:26:23.888Z,79.73
2022-09-25T21:28:52.995Z,77.76
2022-09-25T21:31:22.444Z,79.36
2022-09-25T21:33:53.115Z,75.98
2022-09-25T21:36:21.033Z,77.07
2022-09-25T21:38:49.369Z,75.42
2022-09-25T21:41:18.564Z,76.20
2022-09-25T21:43:46.273Z,75.84
2022-09-25T21:46:15.740Z,77.63
2022-09-25T21:48:48.466Z,77.05
2022-09-25T21:51:17.181Z,79.95
2022-09-25T21:53:44.058Z,78.06
2022-09-25T21:56:17.251Z,76.39
2022-09-25T21:58:44.609Z,76.03
2022-09-25T22:01:20.617Z,76.49
2022-09-25T22:03:49.951Z,78.57
2022-09-25T22:06:40.611Z,77.79
2022-09-25T22:09:14.451Z,79.81
2022-09-25T22:11:42.523Z,80.47
2022-09-25T22:14:15.499Z,83.55
2022-09-25T22:16:43.934Z,82.44
2022-09-25T22:19:22.727Z,84.34
2022-09-25T22:21:51.004Z,88.32
2022-09-25T22:24:18.241Z,92.76
2022-09-25T22:26:47.330Z,96.17
2022-09-25T22:29:14.911Z,99.18
2022-09-25T22:31:44.583Z,97.44
2022-09-25T22:34:21.179Z,95.53
2022-09-25T22:36:49.277Z,99.37
2022-09-25T22:39:18.116Z,96.26
2022-09-25T22:41:45.397Z,95.18
2022-09-25T22:44:12.108Z,96.67
2022-09-25T22:46:38.686Z,97.47
2022-09-25T22:49:05.409Z,95.41
2022-09-25T22:51:32.059Z,95.43
2022-09-25T22:53:58.769Z,96.89
2022-09-25T22:56:30.975Z,100.00
2022-09-25T22:59:01.531Z,99.71
2022-09-25T23:01:33.632Z,100.00
2022-09-25T23:04:01.913Z,100.00
2022-09-25T23:06:30.658Z,100.00
2022-09-25T23:08:59.696Z,100.00
2022-09-25T23:11:26.665Z,100.00
2022-09-25T23:13:58.817Z,100.00
2022-09-25T23:16:25.567Z,100.00
2022-09-25T23:18:52.346Z,100.00
2022-09-25T23:21:19.126Z,100.00
2022-09-25T23:23:45.729Z,100.00
2022-09-25T23:26:12.499Z,100.00
2022-09-25T23:28:40.541Z,100.00
2022-09-25T23:31:12.973Z,100.00
2022-09-25T23:33:40.451Z,100.00
2022-09-25T23:36:10.340Z,100.00
2022-09-25T23:38:38.033Z,100.00
2022-09-25T23:41:21.068Z,100.00
2022-09-25T23:43:49.436Z,100.00
2022-09-25T23:46:18.436Z,100.00
2022-09-25T23:48:45.514Z,100.00
2022-09-25T23:51:13.405Z,100.00
2022-09-25T23:53:41.005Z,100.00
2022-09-25T23:56:14.014Z,100.00
2022-09-25T23:58:40.980Z,100.00
